Wray, CO

3:14 PM MDT on July 23, 2014 (GMT -0600)
KCOYUMA4 Elev 4134 ft | 40.12 °N, 102.72 °W | Change Station

Current weather conditions updated 49 seconds ago

Clear
Clear
90.2 °F
Feels Like 92 °F
N
10.0
Wind Variable Wind from SE
Gusts 14.0 mph

Today is forecast to be nearly the same temperature as yesterday.

Today
High -- | Low -- °F
--% Chance of Precip.
Yesterday
High -- | Low -- °F
Precip. -- in
5:38 AM 8:11 PM
Waning Crescent, 8% visible
Pressure 30.21 in
Visibility 7.0 miles
Clouds Clear
Heat Index 92 °F
Dew Point 65 °F
Humidity 44%
Rainfall 0.00 in
Snow Depth Not available.
UV 7.2 out of 12
Pollen 6.70 out of 12
Air Quality Not available.
Flu Activity Not available.
METAR KHEQ 232055Z AUTO 17015G22KT 7SM CLR 34/18 A3021 RMK AO2

More Conditions Fewer Conditions

Pressure 30.21 in
Visibility 7.0 miles
Clouds Clear
Heat Index 92 °F
Dew Point 65 °F
Humidity 44%
Rainfall 0.00 in
Snow Depth Not available.
UV 7.2 out of 12
Pollen 6.70 out of 12
Air Quality Not available.
Flu Activity Not available.
METAR KHEQ 232055Z AUTO 17015G22KT 7SM CLR 34/18 A3021 RMK AO2

More Conditions Fewer Conditions

10-Day Weather Forecast

Almanac

Astronomy

Jul. 23, 2014 Rise Set
Actual Time 5:38 AM MDT 8:11 PM MDT
Civil Twilight 5:07 AM MDT 8:42 PM MDT
Nautical Twilight 4:28 AM MDT 9:21 PM MDT
Astronomical Twilight 3:45 AM MDT 10:05 PM MDT
Moon 2:59 AM MDT 5:42 PM MDT
Length of Visible Light 15h 35m
Length of Day
14h 32m
Tomorrow will be 1m 42s shorter.
Waning Crescent, 8% of the Moon is Illuminated
Today
Waning Crescent
Jul 26
New
Aug 3
First Quarter
Aug 10
Full
Aug 17
Last Quarter

Today's Extremes

State Highs State Lows

Community

WunderPhotos

Upload Photos

1,736,782 photos uploaded!

Nearby

Snow Depth

Station Depth Elevation
Niwot 0 in 9910 ft
Lake Irene 1 in 10700 ft
Jackwhacker Gulch 0 in 10960 ft
Grizzly Peak 4 in 11100 ft
Rawah 20 in 9020 ft

Earthquake Activity

City Distance Mag. Time & Date
No recent earthquake activity has been reported nearby.
Minimum magnitude displayed is 2.5.

Coastal Water Temperatures

Place Temperature
No Stations Reporting

Nearby Weather Stations

Station Location Temp. Heat Index Dew Point Humidity Wind Precip. Elev Updated Type
Yuma, CO 90.2 °F 92 °F 65 °F 44% SE  at  10.0 mph 0.00 in / hr 4134 ft 3:13 PM MDT Normal

Show More Stations Show Fewer Stations